Time;durP1;ratioP1;P1;durP2;ratioP2;P2;SDS_P1;SDS_P2;PMS_P1;PMS_P2;Temp;Humidity;BMP_temperature;BMP_pressure;BME280_temperature;BME280_humidity;BME280_pressure;Samples;Min_cycle;Max_cycle;Signal;HPM_P1;HPM_P2
2023/09/13 00:02:09;;;;;;;3.40;3.10;;;18.30;99.90;;;;;;5077041;28;20177;-83
2023/09/13 00:04:35;;;;;;;5.97;3.80;;;18.20;99.90;;;;;;5078527;28;20175;-83
2023/09/13 00:07:00;;;;;;;4.87;4.27;;;18.10;99.90;;;;;;5076487;28;20299;-84
2023/09/13 00:09:26;;;;;;;4.60;3.90;;;18.10;99.90;;;;;;5077817;28;20200;-83
2023/09/13 00:11:51;;;;;;;3.97;3.63;;;18.20;99.90;;;;;;5076020;28;20177;-83
2023/09/13 00:14:17;;;;;;;5.97;3.95;;;18.20;99.90;;;;;;5076611;28;20197;-84
2023/09/13 00:16:42;;;;;;;5.13;3.80;;;18.20;99.90;;;;;;5075876;28;20190;-84
2023/09/13 00:19:08;;;;;;;4.05;3.45;;;18.20;99.90;;;;;;5076701;28;20173;-83
2023/09/13 00:21:34;;;;;;;4.73;4.27;;;18.30;99.90;;;;;;5077189;28;20668;-83
2023/09/13 00:23:59;;;;;;;4.33;3.80;;;18.20;99.90;;;;;;5077783;28;20169;-83
2023/09/13 00:26:25;;;;;;;5.70;4.40;;;18.20;99.90;;;;;;5076124;28;20185;-83
2023/09/13 00:28:50;;;;;;;4.33;3.83;;;18.20;99.90;;;;;;5075638;28;20177;-83
2023/09/13 00:31:17;;;;;;;5.27;4.07;;;18.10;99.90;;;;;;5075741;28;20181;-83
2023/09/13 00:33:42;;;;;;;5.50;4.03;;;18.10;99.90;;;;;;5075814;28;20177;-83
2023/09/13 00:36:08;;;;;;;5.70;4.10;;;18.10;99.90;;;;;;5077169;28;20288;-83
2023/09/13 00:38:33;;;;;;;4.77;3.83;;;18.10;99.90;;;;;;5077482;28;20203;-83
2023/09/13 00:40:59;;;;;;;5.38;3.78;;;18.10;99.90;;;;;;5077275;28;20173;-84
2023/09/13 00:43:25;;;;;;;4.40;4.00;;;18.10;99.90;;;;;;5076097;28;20177;-83
2023/09/13 00:45:51;;;;;;;4.57;4.00;;;18.10;99.90;;;;;;5076174;28;20283;-83
2023/09/13 00:48:17;;;;;;;4.17;3.77;;;18.00;99.90;;;;;;5077167;28;20716;-83
2023/09/13 00:50:45;;;;;;;6.43;3.97;;;18.00;99.90;;;;;;5076790;28;20177;-83
2023/09/13 00:53:11;;;;;;;3.80;3.50;;;18.00;99.90;;;;;;5077615;28;20230;-83
2023/09/13 00:55:38;;;;;;;5.27;4.10;;;17.90;99.90;;;;;;5075608;28;20201;-83
2023/09/13 00:58:05;;;;;;;4.10;3.70;;;17.90;99.90;;;;;;5074866;28;20173;-83
2023/09/13 01:00:32;;;;;;;4.27;3.70;;;17.90;99.90;;;;;;5076499;28;20208;-83
2023/09/13 01:02:59;;;;;;;4.50;3.90;;;17.80;99.90;;;;;;5075420;28;20205;-83
2023/09/13 01:05:26;;;;;;;4.87;3.87;;;17.80;99.90;;;;;;5077083;28;20188;-84
2023/09/13 01:07:51;;;;;;;4.40;4.00;;;17.70;99.90;;;;;;5130887;22;20217;-89
2023/09/13 01:10:19;;;;;;;3.60;3.30;;;17.70;99.90;;;;;;5054722;28;20185;-89
2023/09/13 01:12:45;;;;;;;3.00;2.70;;;17.70;99.90;;;;;;5073885;28;20600;-88
2023/09/13 01:15:12;;;;;;;2.73;2.53;;;17.70;99.90;;;;;;5073722;28;20254;-89
2023/09/13 01:18:08;;;;;;;3.30;3.00;;;17.70;99.90;;;;;;5056037;28;20193;-88
2023/09/13 01:21:01;;;;;;;3.73;3.33;;;17.70;99.90;;;;;;5055409;28;20244;-89
2023/09/13 01:23:49;;;;;;;3.70;3.30;;;17.70;99.90;;;;;;5055876;28;20177;-89
2023/09/13 01:26:31;;;;;;;3.80;3.30;;;17.80;99.90;;;;;;5073414;28;20367;-89
2023/09/13 01:28:59;;;;;;;4.93;3.17;;;17.80;99.90;;;;;;5073354;28;20203;-89
2023/09/13 01:31:27;;;;;;;3.60;3.20;;;17.60;99.90;;;;;;5055482;28;20264;-89
2023/09/13 01:33:53;;;;;;;3.23;2.93;;;17.50;99.90;;;;;;5073395;28;20185;-88
2023/09/13 01:36:18;;;;;;;4.43;3.30;;;17.50;99.90;;;;;;5055453;28;20193;-89
2023/09/13 01:38:44;;;;;;;3.90;3.50;;;17.60;99.90;;;;;;5073057;28;20177;-89
2023/09/13 01:41:20;;;;;;;3.27;2.97;;;17.50;99.90;;;;;;5055039;28;20194;-89
2023/09/13 01:43:47;;;;;;;5.23;3.03;;;17.50;99.90;;;;;;5055041;28;20181;-89
2023/09/13 01:46:13;;;;;;;4.10;3.10;;;17.60;99.90;;;;;;5073087;28;20172;-87
2023/09/13 01:48:39;;;;;;;3.90;3.20;;;17.60;99.90;;;;;;5073264;28;20172;-89
2023/09/13 01:51:05;;;;;;;3.53;2.97;;;17.60;99.90;;;;;;5072845;28;20169;-89
2023/09/13 01:53:31;;;;;;;3.13;2.83;;;17.70;99.90;;;;;;5073377;28;20195;-89
2023/09/13 01:55:57;;;;;;;4.20;3.00;;;17.70;99.90;;;;;;5054876;28;20631;-89
2023/09/13 01:58:22;;;;;;;2.93;2.73;;;17.70;99.90;;;;;;5055015;28;20185;-89
2023/09/13 02:00:48;;;;;;;3.23;2.93;;;17.60;99.90;;;;;;5072697;28;20169;-89
2023/09/13 02:03:14;;;;;;;3.27;2.70;;;17.60;99.90;;;;;;5072753;28;20257;-89
2023/09/13 02:05:39;;;;;;;2.57;2.37;;;17.40;99.90;;;;;;5072799;28;20180;-89
2023/09/13 02:08:05;;;;;;;2.73;2.53;;;17.40;99.90;;;;;;5054613;28;20209;-88
2023/09/13 02:10:30;;;;;;;2.93;2.30;;;17.40;99.90;;;;;;5054618;28;20318;-88
2023/09/13 02:12:58;;;;;;;3.87;2.50;;;17.30;99.90;;;;;;5054652;28;20241;-89
2023/09/13 02:15:24;;;;;;;3.10;2.80;;;17.30;99.90;;;;;;5054699;28;20204;-89
2023/09/13 02:17:49;;;;;;;4.67;2.90;;;17.30;99.90;;;;;;5072749;28;20192;-89
2023/09/13 02:20:15;;;;;;;4.10;3.53;;;17.30;99.90;;;;;;5054672;28;20326;-88
2023/09/13 02:22:40;;;;;;;3.53;3.23;;;17.40;99.90;;;;;;5055540;28;20225;-89
2023/09/13 02:25:06;;;;;;;4.43;3.70;;;17.50;99.90;;;;;;5074516;28;20593;-89
2023/09/13 02:27:32;;;;;;;5.50;4.70;;;17.50;99.90;;;;;;5071986;28;20193;-88
2023/09/13 02:29:58;;;;;;;6.43;5.80;;;17.50;99.90;;;;;;5054209;28;20180;-89
2023/09/13 02:32:24;;;;;;;7.40;6.43;;;17.50;99.90;;;;;;5054269;28;20173;-88
2023/09/13 02:34:49;;;;;;;9.17;6.30;;;17.40;99.90;;;;;;5054274;28;20201;-88
2023/09/13 02:37:15;;;;;;;8.63;6.17;;;17.40;99.90;;;;;;5054238;28;20196;-89
2023/09/13 02:39:42;;;;;;;7.60;6.53;;;17.40;99.90;;;;;;5054213;28;20219;-89
2023/09/13 02:42:08;;;;;;;7.67;6.87;;;17.40;99.90;;;;;;5071765;28;20590;-89
2023/09/13 02:44:34;;;;;;;8.30;7.47;;;17.50;99.90;;;;;;5072452;28;20195;-88
2023/09/13 02:47:01;;;;;;;8.77;7.50;;;17.60;99.90;;;;;;5072208;28;20276;-88
2023/09/13 02:49:26;;;;;;;8.70;7.70;;;17.60;99.90;;;;;;5072092;28;20237;-89
2023/09/13 02:51:52;;;;;;;10.77;7.80;;;17.70;99.90;;;;;;5053944;28;20196;-88
2023/09/13 02:54:18;;;;;;;8.47;7.20;;;17.70;99.90;;;;;;5071906;28;20204;-89
2023/09/13 02:56:45;;;;;;;10.07;8.97;;;17.80;99.90;;;;;;5071782;28;20201;-88
2023/09/13 02:59:11;;;;;;;10.57;8.60;;;17.70;99.90;;;;;;5072070;28;20173;-88
2023/09/13 03:01:36;;;;;;;10.63;8.83;;;17.80;99.90;;;;;;5071935;28;20208;-89
2023/09/13 03:04:02;;;;;;;10.43;8.63;;;17.80;99.90;;;;;;5054049;28;20212;-89
2023/09/13 03:06:29;;;;;;;10.17;8.70;;;17.70;99.90;;;;;;5053817;28;20213;-89
2023/09/13 03:08:58;;;;;;;12.30;9.23;;;17.80;99.90;;;;;;5053974;28;20173;-88
2023/09/13 03:11:24;;;;;;;9.70;8.27;;;17.80;99.90;;;;;;5071945;28;20181;-88
2023/09/13 03:13:49;;;;;;;11.70;9.07;;;17.90;99.90;;;;;;5071942;28;20169;-88
2023/09/13 03:16:17;;;;;;;10.53;9.33;;;17.90;99.90;;;;;;5071879;28;20702;-88
2023/09/13 03:18:44;;;;;;;13.17;9.70;;;17.80;99.90;;;;;;5054119;28;20680;-88
2023/09/13 03:21:11;;;;;;;10.73;9.20;;;17.80;99.90;;;;;;5071689;28;20169;-87
2023/09/13 03:23:39;;;;;;;11.10;9.83;;;17.70;99.90;;;;;;5071729;28;20253;-88
2023/09/13 03:26:31;;;;;;;11.50;9.80;;;17.70;99.90;;;;;;5071963;28;20184;-88
2023/09/13 03:28:57;;;;;;;11.00;9.70;;;17.80;99.90;;;;;;5049822;28;20177;-87
2023/09/13 03:31:25;;;;;;;11.60;9.37;;;17.70;99.90;;;;;;5053654;28;20548;-89
2023/09/13 03:33:53;;;;;;;12.30;10.10;;;17.70;99.90;;;;;;5054502;28;20176;-89
2023/09/13 03:36:18;;;;;;;12.37;9.57;;;17.70;99.90;;;;;;5057419;28;20205;-88
2023/09/13 03:38:46;;;;;;;10.90;9.13;;;17.80;99.90;;;;;;5057775;28;20195;-89
2023/09/13 03:41:22;;;;;;;12.30;9.80;;;17.80;99.90;;;;;;5075422;28;20175;-89
2023/09/13 03:43:49;;;;;;;11.40;10.20;;;17.90;99.90;;;;;;5057478;28;20169;-88
2023/09/13 03:46:14;;;;;;;12.90;10.33;;;17.90;99.90;;;;;;5057507;28;20204;-90
2023/09/13 03:48:40;;;;;;;11.53;10.33;;;17.90;99.90;;;;;;5057310;28;20205;-88
2023/09/13 03:51:07;;;;;;;11.33;10.13;;;18.00;99.90;;;;;;5075321;28;20236;-89
2023/09/13 03:53:33;;;;;;;11.80;9.57;;;18.00;99.90;;;;;;5075150;28;20173;-88
2023/09/13 03:56:00;;;;;;;12.67;10.13;;;18.00;99.90;;;;;;5074812;28;20200;-88
2023/09/13 03:58:26;;;;;;;13.07;10.00;;;18.00;99.90;;;;;;5057402;28;20641;-89
2023/09/13 04:00:53;;;;;;;11.57;10.37;;;18.00;99.90;;;;;;5074987;28;20169;-89
2023/09/13 04:03:19;;;;;;;12.57;10.97;;;18.00;99.90;;;;;;5075012;28;20245;-88
2023/09/13 04:05:45;;;;;;;13.53;11.00;;;18.00;99.90;;;;;;5075377;28;20169;-89
2023/09/13 04:08:11;;;;;;;13.00;11.00;;;18.00;99.90;;;;;;5056983;28;20219;-89
2023/09/13 04:10:36;;;;;;;12.53;11.20;;;18.10;99.90;;;;;;5056809;28;20180;-89
2023/09/13 04:13:02;;;;;;;14.07;11.23;;;18.10;99.90;;;;;;5074899;28;20216;-88
2023/09/13 04:15:28;;;;;;;13.70;11.53;;;18.10;99.90;;;;;;5074646;28;20291;-88
2023/09/13 04:17:53;;;;;;;14.60;12.20;;;18.10;99.90;;;;;;5074511;28;20199;-89
2023/09/13 04:20:20;;;;;;;13.50;12.00;;;18.10;99.90;;;;;;5074843;28;20195;-85
2023/09/13 04:22:46;;;;;;;13.47;11.90;;;18.10;99.90;;;;;;5074350;28;20520;-89
2023/09/13 04:25:11;;;;;;;13.47;12.17;;;18.10;99.90;;;;;;5074589;28;20264;-88
2023/09/13 04:27:37;;;;;;;14.20;12.30;;;18.00;99.90;;;;;;5074623;28;20238;-87
2023/09/13 04:30:02;;;;;;;14.87;12.60;;;18.00;99.90;;;;;;5074505;28;20177;-88
2023/09/13 04:32:28;;;;;;;15.30;12.77;;;17.90;99.90;;;;;;5056331;28;20173;-88
2023/09/13 04:34:54;;;;;;;16.53;13.43;;;18.00;99.90;;;;;;5074573;28;20200;-88
2023/09/13 04:37:20;;;;;;;16.40;13.93;;;18.00;99.90;;;;;;5074257;28;20199;-88
2023/09/13 04:39:46;;;;;;;16.33;14.53;;;18.00;99.90;;;;;;5074398;28;20180;-89
2023/09/13 04:42:13;;;;;;;19.47;14.50;;;18.00;99.90;;;;;;5056027;28;20169;-88
2023/09/13 04:44:38;;;;;;;18.57;15.43;;;18.10;99.90;;;;;;5056037;28;20173;-88
2023/09/13 04:47:04;;;;;;;19.20;15.37;;;18.10;99.90;;;;;;5074003;28;20216;-88
2023/09/13 04:49:30;;;;;;;19.53;15.33;;;18.20;99.90;;;;;;5074277;28;20638;-88
2023/09/13 04:51:57;;;;;;;21.47;15.87;;;18.20;99.90;;;;;;5073832;28;20228;-88
2023/09/13 04:54:23;;;;;;;19.80;15.30;;;18.20;99.90;;;;;;5074071;28;20200;-88
2023/09/13 04:56:51;;;;;;;21.53;15.73;;;18.20;99.90;;;;;;5073977;28;20695;-86
2023/09/13 04:59:18;;;;;;;19.87;15.47;;;18.20;99.90;;;;;;5056199;28;20173;-85
2023/09/13 05:01:44;;;;;;;21.00;15.53;;;18.20;99.90;;;;;;5072648;28;20187;-86
2023/09/13 05:04:10;;;;;;;20.67;16.70;;;18.20;99.90;;;;;;5074147;28;20177;-85
2023/09/13 05:06:36;;;;;;;20.93;15.63;;;18.20;99.90;;;;;;5073859;28;20220;-85
2023/09/13 05:09:02;;;;;;;20.60;16.10;;;18.20;99.90;;;;;;5056118;28;20192;-85
2023/09/13 05:11:27;;;;;;;20.53;16.37;;;18.30;99.90;;;;;;5073632;28;20177;-85
2023/09/13 05:14:12;;;;;;;19.27;15.80;;;18.30;99.90;;;;;;5073909;28;20184;-84
2023/09/13 05:16:37;;;;;;;21.17;16.47;;;18.30;99.90;;;;;;5056309;28;20211;-83
2023/09/13 05:19:03;;;;;;;21.60;17.13;;;18.30;99.90;;;;;;5074301;28;20268;-83
2023/09/13 05:21:29;;;;;;;21.50;16.50;;;18.20;99.90;;;;;;5055979;28;20185;-86
2023/09/13 05:23:54;;;;;;;21.90;16.93;;;18.20;99.90;;;;;;5055969;28;20176;-83
2023/09/13 05:26:20;;;;;;;17.40;14.17;;;18.20;99.90;;;;;;5056190;28;20197;-83
2023/09/13 05:28:46;;;;;;;24.60;16.87;;;18.30;99.90;;;;;;5056166;28;20177;-83
2023/09/13 05:31:11;;;;;;;20.57;16.87;;;18.30;99.90;;;;;;5056040;28;20226;-87
2023/09/13 05:33:37;;;;;;;22.73;17.13;;;18.30;99.90;;;;;;5074210;28;20187;-79
2023/09/13 05:36:10;;;;;;;15.77;13.00;;;18.30;99.90;;;;;;5074533;28;20248;-79
2023/09/13 05:38:36;;;;;;;10.70;9.20;;;19.10;99.90;;;;;;5056095;28;20701;-82
2023/09/13 05:41:08;;;;;;;20.07;15.53;;;19.60;99.90;;;;;;5055531;28;20260;-78
2023/09/13 05:43:39;;;;;;;15.32;11.88;;;19.90;99.90;;;;;;5056161;28;20173;-79
2023/09/13 05:46:05;;;;;;;15.77;12.75;;;19.80;99.90;;;;;;5075176;28;20226;-79
2023/09/13 05:48:31;;;;;;;16.02;12.57;;;20.10;99.90;;;;;;5057730;28;20176;-79
2023/09/13 05:50:56;;;;;;;16.92;13.45;;;20.30;99.90;;;;;;5056239;28;20212;-79
2023/09/13 05:53:22;;;;;;;12.65;11.00;;;19.80;99.90;;;;;;5056582;28;20185;-79
2023/09/13 05:55:48;;;;;;;13.95;12.15;;;19.60;99.90;;;;;;5055778;28;20200;-78
2023/09/13 05:58:14;;;;;;;12.95;11.07;;;19.60;99.90;;;;;;5073212;28;20192;-79
2023/09/13 06:00:45;;;;;;;14.40;10.70;;;19.90;99.90;;;;;;5055561;28;20175;-79
2023/09/13 06:03:11;;;;;;;10.80;9.65;;;19.90;99.90;;;;;;5072183;28;20173;-79
2023/09/13 06:05:36;;;;;;;11.15;9.38;;;19.90;99.90;;;;;;5056006;28;20184;-80
2023/09/13 06:08:02;;;;;;;10.88;9.23;;;19.90;99.90;;;;;;5074404;28;20223;-78
2023/09/13 06:10:28;;;;;;;11.45;9.68;;;20.00;99.90;;;;;;5073874;28;20183;-79
2023/09/13 06:12:54;;;;;;;10.07;8.27;;;19.70;99.90;;;;;;5056825;28;20292;-82
2023/09/13 06:15:20;;;;;;;9.27;8.18;;;19.80;99.90;;;;;;5073782;28;20228;-79
2023/09/13 06:17:46;;;;;;;12.68;10.65;;;19.80;99.90;;;;;;5074391;28;20221;-81
2023/09/13 06:20:11;;;;;;;12.27;10.98;;;19.90;99.90;;;;;;5074340;28;20229;-80
2023/09/13 06:22:37;;;;;;;13.75;11.00;;;19.70;99.90;;;;;;5057014;28;20177;-82
2023/09/13 06:25:03;;;;;;;12.93;11.25;;;19.60;99.90;;;;;;5073828;28;20177;-86
2023/09/13 06:27:29;;;;;;;12.63;10.93;;;19.30;99.90;;;;;;5054712;28;20193;-83
2023/09/13 06:29:55;;;;;;;11.75;10.55;;;19.10;99.90;;;;;;5055425;28;20241;-82
2023/09/13 06:32:20;;;;;;;12.88;9.55;;;19.10;99.90;;;;;;5055040;28;20169;-82
2023/09/13 06:34:46;;;;;;;9.60;8.65;;;19.20;99.90;;;;;;5054838;28;20613;-83
2023/09/13 06:37:12;;;;;;;10.63;8.30;;;19.40;99.90;;;;;;5054863;28;20677;-82
2023/09/13 06:39:38;;;;;;;8.23;7.43;;;19.50;99.90;;;;;;5055686;28;20192;-83
2023/09/13 06:42:04;;;;;;;7.45;6.70;;;19.80;99.90;;;;;;5055607;28;20645;-83
2023/09/13 06:44:30;;;;;;;8.65;7.40;;;20.00;99.90;;;;;;5072885;28;20184;-82
2023/09/13 06:46:56;;;;;;;7.05;6.35;;;20.20;99.90;;;;;;5073400;28;20192;-82
2023/09/13 06:49:21;;;;;;;6.95;6.22;;;20.30;99.90;;;;;;5055807;28;20536;-79
2023/09/13 06:51:47;;;;;;;9.77;8.65;;;20.90;99.90;;;;;;5055664;28;20268;-82
2023/09/13 06:54:12;;;;;;;7.75;6.38;;;20.80;99.90;;;;;;5074837;28;20597;-82
2023/09/13 06:56:40;;;;;;;7.97;6.88;;;21.10;99.90;;;;;;5077703;28;20189;-83
2023/09/13 06:59:05;;;;;;;7.78;7.07;;;21.10;99.90;;;;;;5057668;28;20192;-82
2023/09/13 07:01:31;;;;;;;10.77;7.55;;;21.00;99.90;;;;;;5073647;28;20541;-82
2023/09/13 07:03:57;;;;;;;8.20;7.40;;;21.30;99.90;;;;;;5055747;28;20165;-82
2023/09/13 07:06:23;;;;;;;7.70;5.90;;;21.20;99.90;;;;;;5075187;28;20663;-81
2023/09/13 07:08:49;;;;;;;9.00;8.02;;;21.30;99.90;;;;;;5075838;28;20679;-82
2023/09/13 07:11:15;;;;;;;5.50;5.00;;;21.40;99.90;;;;;;5059546;28;20173;-82
2023/09/13 07:13:41;;;;;;;9.35;7.88;;;21.50;78.00;;;;;;5077663;28;20177;-82
2023/09/13 07:16:06;;;;;;;10.25;8.32;;;21.10;91.40;;;;;;5077116;28;20699;-82
2023/09/13 07:18:32;;;;;;;10.57;9.48;;;20.90;99.90;;;;;;5077561;28;20190;-81
2023/09/13 07:20:58;;;;;;;11.40;10.27;;;20.70;99.90;;;;;;5059828;28;20226;-80
2023/09/13 07:23:23;;;;;;;11.93;10.73;;;20.60;99.90;;;;;;5059747;28;20227;-81
2023/09/13 07:25:49;;;;;;;12.18;10.45;;;20.60;99.90;;;;;;5077735;28;20222;-82
2023/09/13 07:28:15;;;;;;;12.50;11.20;;;20.50;99.90;;;;;;5077314;28;20280;-81
2023/09/13 07:30:41;;;;;;;12.35;10.10;;;20.60;99.90;;;;;;5077283;28;20202;-80
2023/09/13 07:33:06;;;;;;;9.70;8.70;;;20.50;99.90;;;;;;5059447;28;20187;-81
2023/09/13 07:35:33;;;;;;;13.35;10.93;;;20.40;99.90;;;;;;5059223;28;20200;-81
2023/09/13 07:37:59;;;;;;;12.13;10.75;;;20.20;99.90;;;;;;5059463;28;20323;-83
2023/09/13 07:40:25;;;;;;;12.02;10.82;;;20.30;99.90;;;;;;5059229;28;20207;-80
2023/09/13 07:42:50;;;;;;;11.80;10.15;;;20.20;99.90;;;;;;5059236;28;20169;-81
2023/09/13 07:45:16;;;;;;;11.77;10.55;;;20.10;99.90;;;;;;5077044;28;20215;-81
2023/09/13 07:47:42;;;;;;;10.80;9.27;;;20.20;99.90;;;;;;5077167;28;20193;-80
2023/09/13 07:50:38;;;;;;;9.65;8.70;;;20.40;99.90;;;;;;5059180;28;20599;-81
2023/09/13 07:53:04;;;;;;;9.65;8.73;;;20.40;99.90;;;;;;5076588;28;20168;-82
2023/09/13 07:55:30;;;;;;;10.07;9.02;;;20.40;99.90;;;;;;5076912;28;20208;-80
2023/09/13 07:57:55;;;;;;;9.93;8.93;;;20.60;99.90;;;;;;5059262;28;20189;-82
2023/09/13 08:00:21;;;;;;;10.60;9.50;;;20.70;99.90;;;;;;5059147;28;20196;-80
2023/09/13 08:02:48;;;;;;;10.75;9.65;;;20.70;99.90;;;;;;5059141;28;20183;-81
2023/09/13 08:05:15;;;;;;;10.63;9.57;;;20.60;99.90;;;;;;5076947;28;20177;-81
2023/09/13 08:07:41;;;;;;;10.80;9.35;;;20.60;99.90;;;;;;5076978;28;20639;-81
2023/09/13 08:10:07;;;;;;;10.25;9.13;;;20.60;99.90;;;;;;5076588;28;20192;-81
2023/09/13 08:12:32;;;;;;;10.18;9.07;;;20.50;99.90;;;;;;5058481;28;20532;-82
2023/09/13 08:14:58;;;;;;;10.25;8.68;;;20.60;99.90;;;;;;5075821;28;20200;-82
2023/09/13 08:17:23;;;;;;;9.75;8.60;;;20.60;99.90;;;;;;5075835;28;20185;-82
2023/09/13 08:19:49;;;;;;;9.70;8.70;;;20.50;99.90;;;;;;5075409;28;20165;-81
2023/09/13 08:22:15;;;;;;;9.40;8.45;;;20.40;99.90;;;;;;5076288;28;20203;-80
2023/09/13 08:24:41;;;;;;;11.43;9.05;;;20.40;99.90;;;;;;5076121;28;20168;-81
2023/09/13 08:27:06;;;;;;;10.32;8.88;;;20.40;99.90;;;;;;5057065;28;20652;-83
2023/09/13 08:29:33;;;;;;;9.90;8.90;;;20.30;99.90;;;;;;5057775;28;20185;-83
2023/09/13 08:31:59;;;;;;;10.40;9.32;;;20.30;99.90;;;;;;5064957;28;20184;-83
2023/09/13 08:34:25;;;;;;;9.80;8.27;;;20.40;99.90;;;;;;5064832;28;20177;-85
2023/09/13 08:36:53;;;;;;;9.75;8.63;;;20.60;99.90;;;;;;5074622;28;20189;-83
2023/09/13 08:39:19;;;;;;;9.60;8.70;;;20.80;99.90;;;;;;5075074;28;20640;-85
2023/09/13 08:41:50;;;;;;;11.75;9.30;;;20.90;99.90;;;;;;5073342;28;20255;-83
2023/09/13 08:44:20;;;;;;;13.65;9.50;;;20.90;99.90;;;;;;5069867;28;20168;-82
2023/09/13 08:46:48;;;;;;;11.18;9.68;;;20.80;99.90;;;;;;5057557;28;20242;-83
2023/09/13 08:49:16;;;;;;;11.52;10.30;;;20.90;99.90;;;;;;5075148;28;20638;-82
2023/09/13 08:51:45;;;;;;;10.35;8.93;;;21.10;99.90;;;;;;5076012;28;20165;-82
2023/09/13 08:54:11;;;;;;;11.20;9.57;;;21.20;99.90;;;;;;5075739;28;20184;-82
2023/09/13 08:56:42;;;;;;;9.68;8.63;;;21.30;80.20;;;;;;5075554;28;20215;-81
2023/09/13 08:59:11;;;;;;;10.65;9.55;;;21.30;1.00;;;;;;5066235;28;20242;-82
2023/09/13 09:01:37;;;;;;;9.88;8.68;;;21.20;21.70;;;;;;5076707;28;20177;-80
2023/09/13 09:04:03;;;;;;;9.80;8.80;;;21.30;99.90;;;;;;5075563;28;20181;-83
2023/09/13 09:06:32;;;;;;;12.90;9.57;;;21.30;90.50;;;;;;5074251;28;20212;-84
2023/09/13 09:08:59;;;;;;;9.57;8.57;;;21.10;26.40;;;;;;5062008;28;20744;-82
2023/09/13 09:11:27;;;;;;;10.02;9.00;;;21.10;25.10;;;;;;5074099;28;20169;-82
2023/09/13 09:13:58;;;;;;;10.45;9.23;;;21.00;99.90;;;;;;5056861;28;20174;-82
2023/09/13 09:16:26;;;;;;;9.60;8.60;;;20.90;99.90;;;;;;5056208;28;20200;-82
2023/09/13 09:18:53;;;;;;;10.70;9.02;;;20.80;99.90;;;;;;5075455;28;20173;-84
2023/09/13 09:21:19;;;;;;;9.27;8.35;;;20.80;99.90;;;;;;5073662;28;20644;-82
2023/09/13 09:23:45;;;;;;;10.80;8.98;;;20.80;99.90;;;;;;5075657;28;20341;-81
2023/09/13 09:26:11;;;;;;;10.43;9.07;;;20.90;99.90;;;;;;5074621;28;20226;-81
2023/09/13 09:28:37;;;;;;;10.75;9.00;;;20.90;99.90;;;;;;5064256;28;20223;-80
2023/09/13 09:31:03;;;;;;;10.32;8.98;;;20.90;43.90;;;;;;5068720;28;20602;-81
2023/09/13 09:33:30;;;;;;;11.15;9.80;;;20.80;99.90;;;;;;5076633;28;20181;-80
2023/09/13 09:35:59;;;;;;;10.48;9.38;;;20.80;48.90;;;;;;5066354;28;20240;-82
2023/09/13 09:38:27;;;;;;;12.13;9.70;;;20.70;99.90;;;;;;5074677;28;20229;-81
2023/09/13 09:40:57;;;;;;;10.63;9.52;;;20.70;99.90;;;;;;5075764;28;20177;-84
2023/09/13 09:43:22;;;;;;;11.65;9.82;;;20.70;99.90;;;;;;5075703;28;20181;-80
2023/09/13 09:45:48;;;;;;;11.75;9.95;;;20.70;99.90;;;;;;5073501;28;20215;-86
2023/09/13 09:48:15;;;;;;;11.55;9.45;;;20.70;33.70;;;;;;5072649;28;20220;-88
2023/09/13 09:50:46;;;;;;;12.43;9.35;;;20.80;99.90;;;;;;5072663;28;20177;-87
2023/09/13 09:53:13;;;;;;;13.10;9.88;;;20.90;81.00;;;;;;5059510;28;20172;-86
2023/09/13 09:55:40;;;;;;;11.00;9.48;;;20.90;22.40;;;;;;5054824;28;20684;-86
2023/09/13 09:58:06;;;;;;;12.30;9.77;;;20.90;1.00;;;;;;5072944;28;20204;-86
2023/09/13 10:00:44;;;;;;;14.02;10.35;;;20.80;94.50;;;;;;5054918;28;20170;-88
2023/09/13 10:03:15;;;;;;;11.90;10.30;;;20.90;11.00;;;;;;5073090;28;20165;-86
2023/09/13 10:06:10;;;;;;;11.52;9.93;;;21.00;23.80;;;;;;5055352;28;20240;-85
2023/09/13 10:08:43;;;;;;;12.10;9.98;;;21.00;1.00;;;;;;5052130;28;20711;-84
2023/09/13 10:11:10;;;;;;;10.85;9.20;;;20.90;1.00;;;;;;5065372;28;20276;-86
2023/09/13 10:13:37;;;;;;;11.32;9.60;;;20.90;1.00;;;;;;5066164;28;20261;-85
2023/09/13 10:16:05;;;;;;;12.27;9.43;;;20.80;1.00;;;;;;5056929;28;20196;-83
2023/09/13 10:18:35;;;;;;;12.70;9.68;;;20.80;23.30;;;;;;5071711;28;20230;-86
2023/09/13 10:21:04;;;;;;;12.15;9.63;;;20.80;20.90;;;;;;5040089;28;20180;-86
2023/09/13 10:23:45;;;;;;;12.05;9.75;;;20.70;20.00;;;;;;5047381;28;20226;-86
2023/09/13 10:26:15;;;;;;;11.00;9.68;;;20.70;1.00;;;;;;5054698;28;20518;-86
2023/09/13 10:28:44;;;;;;;10.77;9.05;;;20.70;1.00;;;;;;5054613;28;20181;-86
2023/09/13 10:31:19;;;;;;;12.00;9.85;;;20.70;7.20;;;;;;5054551;28;20180;-87
2023/09/13 10:33:51;;;;;;;9.50;8.48;;;20.80;38.30;;;;;;5072949;28;20190;-87
2023/09/13 10:36:27;;;;;;;11.55;8.02;;;20.90;1.00;;;;;;5072751;28;20197;-86
2023/09/13 10:39:08;;;;;;;8.80;7.90;;;21.00;1.00;;;;;;5054694;28;20252;-87
2023/09/13 10:41:41;;;;;;;10.02;8.90;;;21.30;1.00;;;;;;5072712;28;20153;-84
2023/09/13 10:44:08;;;;;;;9.63;8.07;;;21.50;99.90;;;;;;5053255;28;20174;-86
2023/09/13 10:46:33;;;;;;;10.50;7.78;;;21.60;99.90;;;;;;5034872;28;20197;-86
2023/09/13 10:49:01;;;;;;;9.90;8.20;;;21.60;99.90;;;;;;5035024;28;20272;-86
2023/09/13 10:51:30;;;;;;;11.32;8.23;;;21.70;1.00;;;;;;5052470;28;20184;-86
2023/09/13 10:53:57;;;;;;;8.65;7.80;;;21.80;99.90;;;;;;5052621;28;20173;-87
2023/09/13 10:56:23;;;;;;;8.65;7.57;;;22.40;1.00;;;;;;5034648;28;20210;-87
2023/09/13 10:58:50;;;;;;;8.65;7.38;;;22.60;1.00;;;;;;5034430;28;20268;-86
2023/09/13 11:01:17;;;;;;;9.20;8.15;;;22.60;1.00;;;;;;5052377;28;20170;-86
2023/09/13 11:03:42;;;;;;;10.45;8.05;;;22.60;99.90;;;;;;5034736;28;20173;-87
2023/09/13 11:06:09;;;;;;;9.02;8.02;;;22.50;99.90;;;;;;5051237;28;20188;-86
2023/09/13 11:08:34;;;;;;;11.50;8.40;;;22.50;1.00;;;;;;5034664;28;20181;-86
2023/09/13 11:11:16;;;;;;;10.35;7.15;;;22.50;99.90;;;;;;5034432;28;20178;-86
2023/09/13 11:13:44;;;;;;;8.85;7.90;;;22.50;1.00;;;;;;5035073;28;20181;-86
2023/09/13 11:16:13;;;;;;;10.05;8.18;;;22.40;1.00;;;;;;5050911;28;20700;-84
2023/09/13 11:18:48;;;;;;;9.10;8.20;;;22.20;1.00;;;;;;5069190;28;20173;-82
2023/09/13 11:21:19;;;;;;;9.82;8.18;;;22.00;1.00;;;;;;5056042;28;20176;-85
2023/09/13 11:23:49;;;;;;;8.90;8.00;;;21.80;1.00;;;;;;5050816;28;20637;-85
2023/09/13 11:26:15;;;;;;;13.25;10.45;;;21.60;99.90;;;;;;5060740;28;20177;-85
2023/09/13 11:28:45;;;;;;;12.48;11.13;;;21.30;34.30;;;;;;5045517;28;20687;-84
2023/09/13 11:31:14;;;;;;;13.57;11.60;;;21.00;99.90;;;;;;5071569;28;20181;-84
2023/09/13 11:33:40;;;;;;;15.10;12.30;;;20.80;99.90;;;;;;5060780;28;20177;-84
2023/09/13 11:36:05;;;;;;;16.83;12.55;;;20.60;99.90;;;;;;5033880;28;20201;-85
2023/09/13 11:38:36;;;;;;;15.60;13.40;;;20.40;99.90;;;;;;5035113;28;20227;-85
2023/09/13 11:41:01;;;;;;;15.45;11.95;;;20.30;99.90;;;;;;5053629;28;20173;-85
2023/09/13 11:43:29;;;;;;;14.70;12.48;;;20.30;99.90;;;;;;5063567;28;20183;-84
2023/09/13 11:45:56;;;;;;;17.50;12.82;;;20.30;99.90;;;;;;5053736;28;20177;-84
2023/09/13 11:48:39;;;;;;;12.30;10.98;;;20.30;99.90;;;;;;5071358;28;20197;-84
2023/09/13 11:51:16;;;;;;;12.85;10.35;;;20.30;99.90;;;;;;5053147;28;20169;-84
2023/09/13 11:53:43;;;;;;;11.82;9.82;;;20.10;99.90;;;;;;5042976;28;20182;-84
2023/09/13 11:56:38;;;;;;;12.35;9.35;;;19.80;99.90;;;;;;5036206;28;20211;-84
2023/09/13 11:59:04;;;;;;;10.95;9.18;;;19.60;99.90;;;;;;5043605;28;20177;-85
2023/09/13 12:01:30;;;;;;;12.50;9.97;;;19.60;99.90;;;;;;5066782;28;20177;-85
2023/09/13 12:03:58;;;;;;;12.50;11.15;;;19.70;99.90;;;;;;5075173;28;20173;-84
2023/09/13 12:06:24;;;;;;;12.88;11.52;;;19.70;99.90;;;;;;5066825;28;20193;-85
2023/09/13 12:08:49;;;;;;;13.18;11.77;;;19.70;99.90;;;;;;5057183;28;20179;-84
2023/09/13 12:11:15;;;;;;;14.93;13.32;;;19.80;99.90;;;;;;5061665;28;20181;-84
2023/09/13 12:13:48;;;;;;;14.80;13.07;;;19.90;99.90;;;;;;5065610;28;20180;-83
2023/09/13 12:16:15;;;;;;;16.63;13.30;;;20.10;99.90;;;;;;5072161;28;20201;-85
2023/09/13 12:18:43;;;;;;;17.02;14.50;;;20.30;99.90;;;;;;5043091;28;20177;-84
2023/09/13 12:21:10;;;;;;;15.82;14.10;;;20.40;99.90;;;;;;5054696;28;20201;-86
2023/09/13 12:23:38;;;;;;;14.00;12.18;;;20.70;99.90;;;;;;5075505;28;20225;-84
2023/09/13 12:26:07;;;;;;;16.70;13.45;;;21.00;99.90;;;;;;5077197;28;20177;-83
2023/09/13 12:28:35;;;;;;;17.90;14.10;;;21.20;99.90;;;;;;5051974;28;20177;-83
2023/09/13 12:31:12;;;;;;;14.57;13.07;;;21.80;99.90;;;;;;5062116;28;20177;-84
2023/09/13 12:33:40;;;;;;;13.32;11.93;;;22.00;99.90;;;;;;5066827;28;20173;-85
2023/09/13 12:36:06;;;;;;;14.27;12.30;;;21.80;32.40;;;;;;5064483;28;20205;-84
2023/09/13 12:38:41;;;;;;;18.55;14.57;;;21.50;99.90;;;;;;5077087;28;20205;-84
2023/09/13 12:41:07;;;;;;;15.00;12.50;;;21.40;99.90;;;;;;5056991;28;20172;-84